This is the latest recevied weather packets stored in our database for station/object KQ4DLB-13. If no packets are shown the sender has not sent any weather packets the latest 1 day(s).
| Time | Temp. | Humidity | Pressure | Rain* | Wind** | Luminosity | Snow |
|---|---|---|---|---|---|---|---|
| 1778019002 | 17.78° C | 85% | 983.4 hPa | 0 mm | 1.79 m/s, 211° | - | - |
| 1778018702 | 17.22° C | 85% | 983.6 hPa | 0 mm | 1.34 m/s, 322° | 191 W/m² | - |
| 1778018402 | 17.22° C | 85% | 983.6 hPa | 0 mm | 1.79 m/s, 177° | 116 W/m² | - |
| 1778018102 | 17.78° C | 83% | 983.6 hPa | 0 mm | 1.79 m/s, 180° | 106 W/m² | - |
| 1778017802 | 17.78° C | 80% | 983.6 hPa | 0 mm | 1.79 m/s, 163° | - | - |
| 1778017502 | 17.78° C | 78% | 983.7 hPa | 0 mm | 1.34 m/s, 299° | 125 W/m² | - |
| 1778017202 | 17.78° C | 77% | 983.6 hPa | 0 mm | 1.79 m/s, 330° | 141 W/m² | - |
| 1778016902 | 17.78° C | 77% | 983.5 hPa | 0 mm | 3.13 m/s, 181° | 146 W/m² | - |
| 1778016602 | 17.78° C | 76% | 983.4 hPa | 0 mm | 4.02 m/s, 173° | 229 W/m² | - |
| 1778016302 | 18.33° C | 75% | 982.9 hPa | 0 mm | 3.58 m/s, 169° | 107 W/m² | - |
| 1778016002 | 19.44° C | 69% | 982.5 hPa | 0 mm | 4.02 m/s, 42° | - | - |
| 1778015702 | 20° C | 63% | 983.1 hPa | 0 mm | 2.68 m/s, 352° | - | - |
| 1778015402 | 20.56° C | 61% | 983.6 hPa | 0 mm | 3.13 m/s, 314° | - | - |
| 1778015102 | 21.11° C | 57% | 983.8 hPa | 0 mm | 4.02 m/s, 331° | 122 W/m² | - |
| 1778014802 | 21.67° C | 56% | 984 hPa | 0 mm | 4.02 m/s, 334° | 201 W/m² | - |
| 1778014502 | 21.67° C | 56% | 984 hPa | 0 mm | 4.92 m/s, 347° | 239 W/m² | - |
| 1778014202 | 21.67° C | 56% | 984 hPa | 0 mm | 3.13 m/s, 269° | 299 W/m² | - |
| 1778013902 | 22.22° C | 56% | 984 hPa | 0 mm | 4.02 m/s, 333° | 227 W/m² | - |
| 1778013602 | 22.22° C | 55% | 984.2 hPa | 0 mm | 4.02 m/s, 353° | 381 W/m² | - |
| 1778013302 | 22.78° C | 55% | 984.2 hPa | 0 mm | 4.47 m/s, 340° | 572 W/m² | - |
| 1778013002 | 22.78° C | 55% | 984.2 hPa | 0 mm | 5.81 m/s, 343° | 591 W/m² | - |
| 1778012702 | 23.33° C | 54% | 984.4 hPa | 0 mm | 5.36 m/s, 91° | 825 W/m² | - |
| 1778012402 | 23.33° C | 55% | 984.5 hPa | 0 mm | 3.58 m/s, 271° | 830 W/m² | - |
| 1778012103 | 23.33° C | 55% | 984.5 hPa | 0 mm | 4.92 m/s, 305° | 885 W/m² | - |
| 1778011802 | 23.33° C | 54% | 984.5 hPa | 0 mm | 4.47 m/s, 264° | 901 W/m² | - |
* Rain latest hour (hover to see other rain measurements)
** Current wind speed in m/s (hover to see current wind gust speed)